QFA129 YSSY-ZSPD
Flight info
| Callsign | QFA129 |
|---|---|
| Flight time | N/A |
| Altitude | 34000 |
| Route | RIC H530 LASUD Q293 AKUMI/N0484F360 Q147 VOMPA Q499 NONUM DCT MEMIG A216 KIBAV/N0478F380 A216 HOOVR DCT LADSS/N0472F400 DCT PAKDO G339 AGIKA Z41 POTET A593 LAMEN/K0887F400 A593 AKARA/K0889S1220 A593 DUMET DUM81A |
| Aircraft | A332/H-SDE3GHIJ2J3J5M1RVWXY/LB2D1 |
Departure
| Time | N/A |
|---|---|
| Airport | Sydney Kingsford Smith International Airport (YSSY) |
Arrival
| Time | 2026-05-05 15:44 |
|---|---|
| Airport | Shanghai Pudong International Airport (ZSPD) |
| Time | Latitude | Longitude | Altitude | Speed | Heading |
|---|---|---|---|---|---|
| 2026-05-05 14:06 | 30.10173 | 131.26216 | 36141 ft | 418 kts | 291° |
| 2026-05-05 14:07 | 30.13246 | 131.20510 | 36139 ft | 418 kts | 292° |
| 2026-05-05 14:07 | 30.16315 | 131.14847 | 36139 ft | 419 kts | 292° |
| 2026-05-05 14:08 | 30.19407 | 131.09150 | 36145 ft | 418 kts | 291° |
| 2026-05-05 14:08 | 30.22494 | 131.03455 | 36140 ft | 418 kts | 291° |
| 2026-05-05 14:09 | 30.25576 | 130.97758 | 36144 ft | 418 kts | 291° |
| 2026-05-05 14:09 | 30.28656 | 130.92056 | 36142 ft | 418 kts | 291° |
| 2026-05-05 14:10 | 30.31729 | 130.86357 | 36145 ft | 418 kts | 291° |
| 2026-05-05 14:10 | 30.34802 | 130.80652 | 36149 ft | 417 kts | 291° |
| 2026-05-05 14:11 | 30.37865 | 130.74959 | 36148 ft | 416 kts | 291° |
| 2026-05-05 14:11 | 30.40921 | 130.69268 | 36148 ft | 416 kts | 291° |
| 2026-05-05 14:12 | 30.43954 | 130.63610 | 36146 ft | 416 kts | 291° |
| 2026-05-05 14:12 | 30.47006 | 130.57911 | 36146 ft | 416 kts | 291° |
| 2026-05-05 14:13 | 30.50055 | 130.52208 | 36143 ft | 416 kts | 291° |
| 2026-05-05 14:13 | 30.53102 | 130.46502 | 36153 ft | 416 kts | 291° |
| 2026-05-05 14:14 | 30.56143 | 130.40802 | 36143 ft | 415 kts | 291° |
| 2026-05-05 14:14 | 30.59174 | 130.35109 | 36141 ft | 415 kts | 291° |
| 2026-05-05 14:15 | 30.62202 | 130.29412 | 36141 ft | 415 kts | 291° |
| 2026-05-05 14:15 | 30.65225 | 130.23717 | 36151 ft | 415 kts | 291° |
| 2026-05-05 14:16 | 30.68244 | 130.18025 | 36138 ft | 413 kts | 290° |
| 2026-05-05 14:16 | 30.71250 | 130.12346 | 36139 ft | 413 kts | 290° |
| 2026-05-05 14:17 | 30.74261 | 130.06648 | 36138 ft | 413 kts | 290° |
| 2026-05-05 14:17 | 30.77247 | 130.00989 | 36147 ft | 413 kts | 290° |
| 2026-05-05 14:18 | 30.80247 | 129.95298 | 36138 ft | 413 kts | 290° |
| 2026-05-05 14:18 | 30.83244 | 129.89604 | 36138 ft | 412 kts | 290° |
| 2026-05-05 14:19 | 30.86236 | 129.83909 | 36135 ft | 412 kts | 290° |
| 2026-05-05 14:19 | 30.88740 | 129.79138 | 36149 ft | 413 kts | 290° |
| 2026-05-05 14:20 | 30.91731 | 129.73431 | 36137 ft | 412 kts | 290° |
| 2026-05-05 14:20 | 30.94714 | 129.67733 | 36137 ft | 412 kts | 290° |
| 2026-05-05 14:21 | 30.97677 | 129.62063 | 36137 ft | 412 kts | 290° |
| 2026-05-05 14:21 | 31.00658 | 129.56349 | 36154 ft | 413 kts | 290° |
| 2026-05-05 14:22 | 31.03639 | 129.50626 | 36146 ft | 413 kts | 290° |
| 2026-05-05 14:22 | 31.06621 | 129.44894 | 36148 ft | 413 kts | 290° |
| 2026-05-05 14:23 | 31.09600 | 129.39161 | 36145 ft | 414 kts | 290° |
| 2026-05-05 14:23 | 31.12580 | 129.33416 | 36157 ft | 414 kts | 290° |
| 2026-05-05 14:24 | 31.15561 | 129.27660 | 36146 ft | 414 kts | 290° |
| 2026-05-05 14:24 | 31.18543 | 129.21895 | 36146 ft | 415 kts | 290° |
| 2026-05-05 14:25 | 31.21523 | 129.16126 | 36149 ft | 415 kts | 290° |
| 2026-05-05 14:25 | 31.24481 | 129.10391 | 36157 ft | 415 kts | 290° |
| 2026-05-05 14:26 | 31.27456 | 129.04613 | 36152 ft | 415 kts | 289° |
| 2026-05-05 14:26 | 31.30445 | 128.98799 | 36151 ft | 415 kts | 289° |
| 2026-05-05 14:27 | 31.33396 | 128.93052 | 36146 ft | 415 kts | 289° |
| 2026-05-05 14:27 | 31.36364 | 128.87261 | 36161 ft | 415 kts | 289° |
| 2026-05-05 14:28 | 31.39328 | 128.81470 | 36152 ft | 414 kts | 289° |
| 2026-05-05 14:28 | 31.42288 | 128.75678 | 36152 ft | 414 kts | 289° |
| 2026-05-05 14:29 | 31.45245 | 128.69884 | 36151 ft | 414 kts | 289° |
| 2026-05-05 14:29 | 31.48196 | 128.64092 | 36171 ft | 415 kts | 289° |
| 2026-05-05 14:30 | 31.51149 | 128.58286 | 36153 ft | 415 kts | 289° |
| 2026-05-05 14:30 | 31.54101 | 128.52475 | 36154 ft | 415 kts | 289° |
| 2026-05-05 14:31 | 31.57050 | 128.46659 | 36155 ft | 415 kts | 289° |
| 2026-05-05 14:31 | 31.59997 | 128.40841 | 36154 ft | 415 kts | 289° |
| 2026-05-05 14:32 | 31.62938 | 128.35025 | 36154 ft | 415 kts | 289° |
| 2026-05-05 14:32 | 31.65879 | 128.29199 | 36153 ft | 415 kts | 289° |
| 2026-05-05 14:33 | 31.68801 | 128.23402 | 36153 ft | 415 kts | 289° |
| 2026-05-05 14:33 | 31.71737 | 128.17568 | 36168 ft | 415 kts | 289° |
| 2026-05-05 14:34 | 31.74673 | 128.11724 | 36154 ft | 416 kts | 289° |
| 2026-05-05 14:34 | 31.77615 | 128.05859 | 36160 ft | 417 kts | 289° |
| 2026-05-05 14:35 | 31.80560 | 127.99983 | 36153 ft | 417 kts | 289° |
| 2026-05-05 14:35 | 31.83507 | 127.94091 | 36169 ft | 418 kts | 289° |
| 2026-05-05 14:36 | 31.86454 | 127.88188 | 36151 ft | 420 kts | 289° |
| 2026-05-05 14:36 | 31.89409 | 127.82263 | 36150 ft | 420 kts | 289° |
| 2026-05-05 14:37 | 31.92363 | 127.76332 | 36152 ft | 420 kts | 289° |
| 2026-05-05 14:37 | 31.95295 | 127.70436 | 36167 ft | 420 kts | 290° |
| 2026-05-05 14:38 | 31.98250 | 127.64480 | 36154 ft | 422 kts | 290° |
| 2026-05-05 14:38 | 32.01209 | 127.58506 | 36151 ft | 422 kts | 290° |
| 2026-05-05 14:39 | 32.04168 | 127.52529 | 36153 ft | 422 kts | 290° |
| 2026-05-05 14:39 | 32.07118 | 127.46557 | 36174 ft | 422 kts | 290° |
| 2026-05-05 14:40 | 32.10081 | 127.40545 | 36152 ft | 425 kts | 290° |
| 2026-05-05 14:40 | 32.13047 | 127.34521 | 36151 ft | 425 kts | 290° |
| 2026-05-05 14:41 | 32.16015 | 127.28483 | 36154 ft | 425 kts | 290° |
| 2026-05-05 14:41 | 32.18979 | 127.22443 | 36171 ft | 425 kts | 290° |
| 2026-05-05 14:42 | 32.21946 | 127.16382 | 36153 ft | 427 kts | 290° |
| 2026-05-05 14:42 | 32.24786 | 127.10294 | 36162 ft | 421 kts | 285° |
| 2026-05-05 14:43 | 32.26436 | 127.03825 | 36152 ft | 405 kts | 271° |
| 2026-05-05 14:43 | 32.26439 | 126.97292 | 36170 ft | 394 kts | 257° |
| 2026-05-05 14:44 | 32.25245 | 126.90965 | 36149 ft | 396 kts | 253° |
| 2026-05-05 14:44 | 32.23825 | 126.84689 | 36151 ft | 396 kts | 252° |
| 2026-05-05 14:45 | 32.22390 | 126.78409 | 36153 ft | 396 kts | 252° |
| 2026-05-05 14:45 | 32.20978 | 126.72118 | 36158 ft | 396 kts | 252° |
| 2026-05-05 14:46 | 32.19579 | 126.65828 | 36152 ft | 397 kts | 253° |
| 2026-05-05 14:46 | 32.18206 | 126.59507 | 36149 ft | 398 kts | 253° |
| 2026-05-05 14:47 | 32.16854 | 126.53222 | 36147 ft | 398 kts | 253° |
| 2026-05-05 14:47 | 32.15488 | 126.46897 | 36147 ft | 399 kts | 253° |
| 2026-05-05 14:48 | 32.14108 | 126.40539 | 36147 ft | 401 kts | 253° |
| 2026-05-05 14:48 | 32.12721 | 126.34168 | 36136 ft | 400 kts | 253° |
| 2026-05-05 14:49 | 32.11341 | 126.27842 | 36148 ft | 397 kts | 253° |
| 2026-05-05 14:49 | 32.09958 | 126.21530 | 36159 ft | 399 kts | 253° |
| 2026-05-05 14:50 | 32.08561 | 126.15169 | 36151 ft | 402 kts | 253° |
| 2026-05-05 14:50 | 32.07157 | 126.08789 | 36158 ft | 402 kts | 253° |
| 2026-05-05 14:51 | 32.05764 | 126.02406 | 36145 ft | 402 kts | 253° |
| 2026-05-05 14:51 | 32.04396 | 125.96023 | 36127 ft | 402 kts | 253° |
| 2026-05-05 14:52 | 32.03032 | 125.89653 | 36146 ft | 400 kts | 253° |
| 2026-05-05 14:52 | 32.01677 | 125.83357 | 36141 ft | 399 kts | 253° |
| 2026-05-05 14:53 | 32.00304 | 125.77029 | 36147 ft | 399 kts | 252° |
| 2026-05-05 14:53 | 31.98905 | 125.70698 | 36143 ft | 401 kts | 253° |
| 2026-05-05 14:54 | 31.97488 | 125.64333 | 36139 ft | 403 kts | 253° |
| 2026-05-05 14:54 | 31.96066 | 125.57952 | 36146 ft | 403 kts | 253° |
| 2026-05-05 14:55 | 31.94645 | 125.51582 | 36139 ft | 401 kts | 252° |
| 2026-05-05 14:55 | 31.93225 | 125.45236 | 36150 ft | 402 kts | 253° |
| 2026-05-05 14:56 | 31.91791 | 125.38848 | 36148 ft | 404 kts | 253° |
| 2026-05-05 14:56 | 31.90361 | 125.32487 | 36148 ft | 405 kts | 253° |
| 2026-05-05 14:57 | 31.88920 | 125.26092 | 36141 ft | 405 kts | 252° |
| 2026-05-05 14:57 | 31.87470 | 125.19680 | 36140 ft | 407 kts | 253° |
| 2026-05-05 14:58 | 31.86009 | 125.13233 | 36120 ft | 408 kts | 252° |
| 2026-05-05 14:58 | 31.84550 | 125.06801 | 36139 ft | 405 kts | 252° |
| 2026-05-05 14:59 | 31.83095 | 125.00406 | 36139 ft | 404 kts | 252° |
| 2026-05-05 14:59 | 31.81685 | 124.93991 | 36136 ft | 408 kts | 253° |
| 2026-05-05 15:00 | 31.80524 | 124.88602 | 36143 ft | 410 kts | 253° |
| 2026-05-05 15:00 | 31.78889 | 124.81016 | 36134 ft | 410 kts | 253° |
| 2026-05-05 15:01 | 31.77481 | 124.74529 | 36138 ft | 410 kts | 253° |
| 2026-05-05 15:01 | 31.76073 | 124.68074 | 36127 ft | 412 kts | 253° |
| 2026-05-05 15:02 | 31.74647 | 124.61554 | 36125 ft | 412 kts | 253° |
| 2026-05-05 15:02 | 31.73219 | 124.55042 | 36134 ft | 412 kts | 253° |
| 2026-05-05 15:03 | 31.71787 | 124.48527 | 36129 ft | 412 kts | 253° |
| 2026-05-05 15:03 | 31.70346 | 124.41995 | 36119 ft | 415 kts | 253° |
| 2026-05-05 15:04 | 31.68893 | 124.35419 | 36117 ft | 417 kts | 253° |
| 2026-05-05 15:04 | 31.67434 | 124.28834 | 36136 ft | 417 kts | 253° |
| 2026-05-05 15:05 | 31.65249 | 124.18999 | 36132 ft | 414 kts | 253° |
| 2026-05-05 15:06 | 31.63795 | 124.12483 | 36127 ft | 417 kts | 253° |
| 2026-05-05 15:06 | 31.62320 | 124.05891 | 36116 ft | 418 kts | 253° |
| 2026-05-05 15:07 | 31.60846 | 123.99298 | 36119 ft | 418 kts | 253° |
| 2026-05-05 15:07 | 31.59397 | 123.92693 | 35941 ft | 416 kts | 254° |
| 2026-05-05 15:07 | 31.58685 | 123.89423 | 35484 ft | 413 kts | 254° |
| 2026-05-05 15:08 | 31.57972 | 123.86154 | 34870 ft | 414 kts | 254° |
| 2026-05-05 15:08 | 31.57257 | 123.82882 | 34241 ft | 415 kts | 254° |
| 2026-05-05 15:08 | 31.56538 | 123.79598 | 33495 ft | 417 kts | 254° |
| 2026-05-05 15:08 | 31.55816 | 123.76312 | 32762 ft | 417 kts | 254° |
| 2026-05-05 15:09 | 31.55090 | 123.73014 | 32026 ft | 418 kts | 254° |
| 2026-05-05 15:09 | 31.54362 | 123.69709 | 31259 ft | 419 kts | 254° |
| 2026-05-05 15:09 | 31.53629 | 123.66391 | 30519 ft | 421 kts | 255° |
| 2026-05-05 15:09 | 31.52896 | 123.63074 | 29996 ft | 419 kts | 255° |
| 2026-05-05 15:10 | 31.52177 | 123.59822 | 29444 ft | 416 kts | 255° |
| 2026-05-05 15:10 | 31.51452 | 123.56548 | 28926 ft | 414 kts | 255° |
| 2026-05-05 15:10 | 31.50730 | 123.53291 | 28488 ft | 414 kts | 255° |
| 2026-05-05 15:10 | 31.50017 | 123.50027 | 28091 ft | 412 kts | 256° |
| 2026-05-05 15:11 | 31.49380 | 123.46779 | 27561 ft | 407 kts | 257° |
| 2026-05-05 15:11 | 31.48771 | 123.43558 | 27042 ft | 404 kts | 257° |
| 2026-05-05 15:11 | 31.48167 | 123.40355 | 26517 ft | 403 kts | 257° |
| 2026-05-05 15:11 | 31.47561 | 123.37151 | 25982 ft | 400 kts | 257° |
| 2026-05-05 15:12 | 31.46961 | 123.33984 | 25451 ft | 396 kts | 257° |
| 2026-05-05 15:12 | 31.46372 | 123.30885 | 24946 ft | 394 kts | 258° |
| 2026-05-05 15:12 | 31.45775 | 123.27756 | 24410 ft | 393 kts | 258° |
| 2026-05-05 15:12 | 31.45179 | 123.24632 | 23876 ft | 393 kts | 258° |
| 2026-05-05 15:13 | 31.44585 | 123.21524 | 23286 ft | 391 kts | 258° |
| 2026-05-05 15:13 | 31.43993 | 123.18426 | 22721 ft | 389 kts | 258° |
| 2026-05-05 15:13 | 31.43403 | 123.15349 | 22198 ft | 386 kts | 258° |
| 2026-05-05 15:13 | 31.42816 | 123.12290 | 21651 ft | 384 kts | 258° |
| 2026-05-05 15:14 | 31.42231 | 123.09247 | 21132 ft | 382 kts | 258° |
| 2026-05-05 15:14 | 31.41649 | 123.06225 | 20599 ft | 379 kts | 258° |
| 2026-05-05 15:14 | 31.41071 | 123.03226 | 20080 ft | 376 kts | 258° |
| 2026-05-05 15:14 | 31.40497 | 123.00250 | 19559 ft | 373 kts | 258° |
| 2026-05-05 15:15 | 31.39926 | 122.97297 | 19048 ft | 371 kts | 258° |
| 2026-05-05 15:15 | 31.39359 | 122.94364 | 18538 ft | 368 kts | 258° |
| 2026-05-05 15:15 | 31.38794 | 122.91448 | 17977 ft | 366 kts | 258° |
| 2026-05-05 15:15 | 31.38240 | 122.88593 | 17460 ft | 363 kts | 258° |
| 2026-05-05 15:16 | 31.37676 | 122.85692 | 16964 ft | 359 kts | 258° |
| 2026-05-05 15:16 | 31.37134 | 122.82903 | 16457 ft | 355 kts | 258° |
| 2026-05-05 15:16 | 31.36585 | 122.80081 | 16006 ft | 359 kts | 258° |
| 2026-05-05 15:16 | 31.35852 | 122.77233 | 15709 ft | 371 kts | 248° |
| 2026-05-05 15:17 | 31.34717 | 122.74489 | 15216 ft | 377 kts | 243° |
| 2026-05-05 15:17 | 31.33461 | 122.71805 | 14705 ft | 375 kts | 242° |
| 2026-05-05 15:17 | 31.32204 | 122.69162 | 14298 ft | 369 kts | 242° |
| 2026-05-05 15:17 | 31.30961 | 122.66542 | 13894 ft | 367 kts | 242° |
| 2026-05-05 15:18 | 31.29731 | 122.63942 | 13452 ft | 363 kts | 242° |
| 2026-05-05 15:18 | 31.28518 | 122.61371 | 13054 ft | 361 kts | 242° |
| 2026-05-05 15:18 | 31.27302 | 122.58795 | 12649 ft | 363 kts | 242° |
| 2026-05-05 15:18 | 31.26090 | 122.56223 | 12286 ft | 358 kts | 241° |
| 2026-05-05 15:19 | 31.25308 | 122.54564 | 12132 ft | 348 kts | 241° |
| 2026-05-05 15:19 | 31.24161 | 122.52131 | 11830 ft | 336 kts | 241° |
| 2026-05-05 15:19 | 31.23047 | 122.49770 | 11462 ft | 328 kts | 241° |
| 2026-05-05 15:19 | 31.21959 | 122.47462 | 11080 ft | 321 kts | 241° |
| 2026-05-05 15:20 | 31.20891 | 122.45200 | 10703 ft | 315 kts | 241° |
| 2026-05-05 15:20 | 31.19845 | 122.42984 | 10349 ft | 308 kts | 241° |
| 2026-05-05 15:20 | 31.18820 | 122.40814 | 10073 ft | 300 kts | 240° |
| 2026-05-05 15:20 | 31.17824 | 122.38710 | 9797 ft | 292 kts | 240° |
| 2026-05-05 15:21 | 31.16846 | 122.36642 | 9424 ft | 289 kts | 240° |
| 2026-05-05 15:21 | 31.15882 | 122.34606 | 9024 ft | 286 kts | 240° |
| 2026-05-05 15:21 | 31.14929 | 122.32595 | 8541 ft | 287 kts | 241° |
| 2026-05-05 15:21 | 31.13958 | 122.30546 | 8281 ft | 280 kts | 241° |
| 2026-05-05 15:22 | 31.13028 | 122.28585 | 8022 ft | 274 kts | 240° |
| 2026-05-05 15:22 | 31.12125 | 122.26681 | 7716 ft | 270 kts | 240° |
| 2026-05-05 15:22 | 31.11221 | 122.24777 | 7427 ft | 267 kts | 240° |
| 2026-05-05 15:22 | 31.10328 | 122.22895 | 7139 ft | 263 kts | 241° |
| 2026-05-05 15:23 | 31.09660 | 122.20927 | 6866 ft | 260 kts | 259° |
| 2026-05-05 15:23 | 31.09787 | 122.18861 | 6645 ft | 255 kts | 290° |
| 2026-05-05 15:23 | 31.10751 | 122.17150 | 6435 ft | 255 kts | 314° |
| 2026-05-05 15:23 | 31.12072 | 122.15771 | 6190 ft | 255 kts | 320° |
| 2026-05-05 15:24 | 31.13515 | 122.14561 | 5927 ft | 256 kts | 333° |
| 2026-05-05 15:24 | 31.15218 | 122.14040 | 5684 ft | 255 kts | 0° |
| 2026-05-05 15:24 | 31.16914 | 122.14548 | 5437 ft | 255 kts | 30° |
| 2026-05-05 15:24 | 31.18331 | 122.15783 | 5191 ft | 255 kts | 42° |
| 2026-05-05 15:25 | 31.19648 | 122.17172 | 4947 ft | 255 kts | 44° |
| 2026-05-05 15:25 | 31.20953 | 122.18573 | 4831 ft | 254 kts | 43° |
| 2026-05-05 15:25 | 31.22258 | 122.19961 | 4679 ft | 254 kts | 44° |
| 2026-05-05 15:25 | 31.23619 | 122.21281 | 4564 ft | 255 kts | 35° |
| 2026-05-05 15:26 | 31.25180 | 122.22289 | 4437 ft | 258 kts | 27° |
| 2026-05-05 15:26 | 31.26802 | 122.23188 | 4311 ft | 257 kts | 26° |
| 2026-05-05 15:26 | 31.28425 | 122.24065 | 4188 ft | 258 kts | 26° |
| 2026-05-05 15:26 | 31.30034 | 122.24937 | 4068 ft | 258 kts | 26° |
| 2026-05-05 15:27 | 31.31660 | 122.25820 | 3934 ft | 257 kts | 26° |
| 2026-05-05 15:27 | 31.33296 | 122.26675 | 3808 ft | 260 kts | 21° |
| 2026-05-05 15:27 | 31.35044 | 122.27192 | 3685 ft | 259 kts | 11° |
| 2026-05-05 15:27 | 31.36837 | 122.27526 | 3556 ft | 262 kts | 9° |
| 2026-05-05 15:28 | 31.38655 | 122.27833 | 3444 ft | 266 kts | 9° |
| 2026-05-05 15:28 | 31.40479 | 122.28139 | 3328 ft | 263 kts | 7° |
| 2026-05-05 15:28 | 31.42287 | 122.28135 | 3196 ft | 259 kts | 347° |
| 2026-05-05 15:28 | 31.43865 | 122.27236 | 3076 ft | 252 kts | 315° |
| 2026-05-05 15:29 | 31.44817 | 122.25579 | 3012 ft | 245 kts | 284° |
| 2026-05-05 15:29 | 31.45069 | 122.23640 | 3013 ft | 240 kts | 267° |
| 2026-05-05 15:29 | 31.45079 | 122.21688 | 3006 ft | 240 kts | 264° |
| 2026-05-05 15:29 | 31.45057 | 122.19731 | 3011 ft | 240 kts | 264° |
| 2026-05-05 15:30 | 31.45041 | 122.17779 | 3011 ft | 240 kts | 264° |
| 2026-05-05 15:30 | 31.45032 | 122.15820 | 3010 ft | 241 kts | 265° |
| 2026-05-05 15:30 | 31.45027 | 122.13862 | 3010 ft | 240 kts | 266° |
| 2026-05-05 15:30 | 31.45023 | 122.11901 | 3009 ft | 241 kts | 266° |
| 2026-05-05 15:31 | 31.45023 | 122.09970 | 3009 ft | 241 kts | 265° |
| 2026-05-05 15:31 | 31.45022 | 122.07976 | 3007 ft | 242 kts | 266° |
| 2026-05-05 15:31 | 31.45022 | 122.06012 | 3006 ft | 242 kts | 266° |
| 2026-05-05 15:31 | 31.45020 | 122.04063 | 3004 ft | 243 kts | 267° |
| 2026-05-05 15:32 | 31.45021 | 122.02082 | 3009 ft | 243 kts | 266° |
| 2026-05-05 15:32 | 31.45021 | 122.00106 | 3004 ft | 242 kts | 266° |
| 2026-05-05 15:32 | 31.45020 | 121.98137 | 3008 ft | 242 kts | 266° |
| 2026-05-05 15:32 | 31.45017 | 121.96162 | 2981 ft | 242 kts | 266° |
| 2026-05-05 15:33 | 31.45016 | 121.94192 | 2989 ft | 242 kts | 266° |
| 2026-05-05 15:33 | 31.45014 | 121.92220 | 2984 ft | 242 kts | 267° |
| 2026-05-05 15:33 | 31.45011 | 121.90244 | 2987 ft | 244 kts | 267° |
| 2026-05-05 15:33 | 31.45009 | 121.88259 | 2985 ft | 244 kts | 268° |
| 2026-05-05 15:34 | 31.45008 | 121.86308 | 2978 ft | 233 kts | 266° |
| 2026-05-05 15:34 | 31.45005 | 121.84462 | 2971 ft | 223 kts | 263° |
| 2026-05-05 15:34 | 31.44828 | 121.82681 | 2975 ft | 219 kts | 255° |
| 2026-05-05 15:34 | 31.44522 | 121.80947 | 2972 ft | 214 kts | 255° |
| 2026-05-05 15:35 | 31.44215 | 121.79304 | 3000 ft | 198 kts | 253° |
| 2026-05-05 15:35 | 31.43928 | 121.77788 | 2981 ft | 188 kts | 253° |
| 2026-05-05 15:35 | 31.43642 | 121.76296 | 2977 ft | 187 kts | 252° |
| 2026-05-05 15:35 | 31.43357 | 121.74806 | 2977 ft | 188 kts | 252° |
| 2026-05-05 15:36 | 31.43072 | 121.73310 | 2972 ft | 188 kts | 253° |
| 2026-05-05 15:36 | 31.42790 | 121.71816 | 2970 ft | 189 kts | 253° |
| 2026-05-05 15:36 | 31.42429 | 121.70347 | 2970 ft | 186 kts | 241° |
| 2026-05-05 15:36 | 31.41520 | 121.69408 | 2969 ft | 175 kts | 195° |
| 2026-05-05 15:37 | 31.40308 | 121.69229 | 2971 ft | 178 kts | 179° |
| 2026-05-05 15:37 | 31.39079 | 121.69427 | 2982 ft | 182 kts | 167° |
| 2026-05-05 15:37 | 31.37863 | 121.69842 | 2970 ft | 179 kts | 163° |
| 2026-05-05 15:37 | 31.36701 | 121.70286 | 2971 ft | 177 kts | 162° |
| 2026-05-05 15:38 | 31.35528 | 121.70739 | 2968 ft | 178 kts | 162° |
| 2026-05-05 15:38 | 31.34348 | 121.71184 | 2971 ft | 179 kts | 163° |
| 2026-05-05 15:38 | 31.33167 | 121.71625 | 2971 ft | 177 kts | 163° |
| 2026-05-05 15:38 | 31.31999 | 121.72061 | 2967 ft | 176 kts | 163° |
| 2026-05-05 15:39 | 31.30857 | 121.72491 | 2962 ft | 165 kts | 163° |
| 2026-05-05 15:39 | 31.29810 | 121.72888 | 2911 ft | 155 kts | 163° |
| 2026-05-05 15:39 | 31.28774 | 121.73286 | 2741 ft | 155 kts | 163° |
| 2026-05-05 15:39 | 31.27748 | 121.73679 | 2501 ft | 155 kts | 163° |
| 2026-05-05 15:40 | 31.26723 | 121.74067 | 2303 ft | 154 kts | 163° |
| 2026-05-05 15:40 | 31.25726 | 121.74446 | 2102 ft | 152 kts | 165° |
| 2026-05-05 15:40 | 31.24762 | 121.74812 | 1905 ft | 137 kts | 163° |
| 2026-05-05 15:40 | 31.23902 | 121.75139 | 1715 ft | 123 kts | 163° |
| 2026-05-05 15:41 | 31.23100 | 121.75444 | 1567 ft | 121 kts | 164° |
| 2026-05-05 15:41 | 31.22297 | 121.75749 | 1403 ft | 122 kts | 165° |
| 2026-05-05 15:41 | 31.21491 | 121.76055 | 1241 ft | 122 kts | 164° |
| 2026-05-05 15:41 | 31.20687 | 121.76358 | 1077 ft | 121 kts | 164° |
| 2026-05-05 15:42 | 31.19873 | 121.76658 | 932 ft | 120 kts | 164° |
| 2026-05-05 15:42 | 31.19089 | 121.76950 | 777 ft | 120 kts | 161° |
| 2026-05-05 15:42 | 31.18303 | 121.77278 | 617 ft | 119 kts | 163° |
| 2026-05-05 15:42 | 31.17506 | 121.77575 | 495 ft | 122 kts | 164° |
| 2026-05-05 15:43 | 31.16706 | 121.77876 | 309 ft | 119 kts | 162° |
| 2026-05-05 15:43 | 31.15923 | 121.78172 | 161 ft | 119 kts | 162° |
| 2026-05-05 15:43 | 31.15129 | 121.78470 | 39 ft | 118 kts | 162° |
| 2026-05-05 15:43 | 31.14463 | 121.78718 | 27 ft | 68 kts | 162° |
| 2026-05-05 15:44 | 31.14202 | 121.78818 | 30 ft | 31 kts | 161° |
| 2026-05-05 15:44 | 31.13996 | 121.78903 | 26 ft | 31 kts | 155° |
| 2026-05-05 15:44 | 31.13825 | 121.79053 | 29 ft | 31 kts | 134° |
| 2026-05-05 15:44 | 31.13714 | 121.79187 | 26 ft | 14 kts | 137° |
| 2026-05-05 15:45 | 31.13628 | 121.79247 | 27 ft | 15 kts | 145° |
| 2026-05-05 15:45 | 31.13617 | 121.79355 | 26 ft | 15 kts | 72° |
| 2026-05-05 15:45 | 31.13650 | 121.79479 | 30 ft | 17 kts | 72° |
| 2026-05-05 15:45 | 31.13689 | 121.79617 | 27 ft | 18 kts | 71° |
| 2026-05-05 15:46 | 31.13775 | 121.79702 | 27 ft | 18 kts | 354° |
| 2026-05-05 15:46 | 31.13899 | 121.79658 | 27 ft | 20 kts | 342° |
| 2026-05-05 15:46 | 31.14032 | 121.79608 | 27 ft | 21 kts | 342° |
| 2026-05-05 15:46 | 31.14129 | 121.79673 | 27 ft | 18 kts | 81° |
| 2026-05-05 15:47 | 31.14161 | 121.79820 | 27 ft | 20 kts | 72° |
| 2026-05-05 15:47 | 31.14190 | 121.79926 | 27 ft | 21 kts | 72° |
| 2026-05-05 15:47 | 31.14252 | 121.80149 | 27 ft | 23 kts | 72° |
| 2026-05-05 15:47 | 31.14303 | 121.80331 | 27 ft | 24 kts | 72° |
| 2026-05-05 15:48 | 31.14356 | 121.80525 | 27 ft | 26 kts | 72° |
| 2026-05-05 15:48 | 31.14412 | 121.80728 | 27 ft | 27 kts | 72° |
| 2026-05-05 15:48 | 31.14471 | 121.80941 | 27 ft | 28 kts | 72° |
| 2026-05-05 15:48 | 31.14527 | 121.81125 | 27 ft | 12 kts | 54° |
| 2026-05-05 15:49 | 31.14571 | 121.81132 | 27 ft | 12 kts | 349° |
| 2026-05-05 15:49 | 31.14675 | 121.81094 | 27 ft | 17 kts | 342° |
| 2026-05-05 15:49 | 31.14795 | 121.81047 | 27 ft | 19 kts | 340° |
| 2026-05-05 15:49 | 31.14893 | 121.81006 | 27 ft | 8 kts | 340° |
| 2026-05-05 15:50 | 31.14924 | 121.80976 | 27 ft | 6 kts | 293° |
| 2026-05-05 15:50 | 31.14919 | 121.80933 | 27 ft | 2 kts | 255° |
| 2026-05-05 15:50 | 31.14914 | 121.80915 | 27 ft | 3 kts | 252° |
| 2026-05-05 15:50 | 31.14911 | 121.80905 | 27 ft | 1 kts | 251° |
| 2026-05-05 15:51 | 31.14908 | 121.80895 | 27 ft | 0 kts | 252° |